.
WxDataArchive / Data Records for 2006-04-11
2006-04-10 April 2006 2006-04-12

Data Records for Tuesday, 11 April 2006

Time	Temp	Chill	HIndex	Humid	Dewpt	 Wind 	HiWind	WindDir	Rain 	Barom 
-----	----	-----	------	-----	-----	------	------	-------	-----	----- 
00:00	44.1	44.1	44.1	72	35.7	0	0	---	0.00	30.125 
00:05	43.8	43.8	43.8	71	35.0	0	0	---	0.00	30.125 
00:10	43.5	43.5	43.5	71	34.7	0	0	---	0.00	30.125 
00:15	43.3	43.3	43.3	71	34.5	0	0	---	0.00	30.122 
00:20	43.1	43.1	43.1	71	34.3	0	0	---	0.00	30.122 
00:25	42.9	42.9	42.9	70	33.8	0	0	---	0.00	30.122 
00:30	42.8	42.8	42.8	70	33.7	0	0	---	0.00	30.120 
00:35	42.6	42.6	42.6	71	33.9	0	0	---	0.00	30.120 
00:40	42.5	42.5	42.5	70	33.4	0	0	---	0.00	30.120 
00:45	42.3	42.3	42.3	71	33.6	0	0	---	0.00	30.120 
00:50	42.2	42.2	42.2	72	33.8	0	0	---	0.00	30.120 
00:55	42.1	42.1	42.1	73	34.1	0	0	---	0.00	30.120 
01:00	41.9	41.9	41.9	73	33.9	0	0	---	0.00	30.121 
01:05	41.6	41.6	41.6	73	33.6	0	0	---	0.00	30.121 
01:10	41.5	41.5	41.5	72	33.2	0	0	---	0.00	30.121 
01:15	41.2	41.2	41.2	73	33.2	0	0	---	0.00	30.121 
01:20	40.9	40.9	40.9	73	32.9	0	0	---	0.00	30.121 
01:25	40.8	40.8	40.8	73	32.8	0	0	---	0.00	30.121 
01:30	40.5	40.5	40.5	74	32.9	0	0	---	0.00	30.120 
01:35	40.3	40.3	40.3	74	32.7	0	0	---	0.00	30.120 
01:40	40.2	40.2	40.2	74	32.6	0	0	---	0.00	30.120 
01:45	40.1	40.1	40.1	74	32.5	0	0	---	0.00	30.120 
01:50	39.9	39.9	39.9	74	32.3	0	0	---	0.00	30.120 
01:55	39.6	39.6	39.6	75	32.3	0	0	---	0.00	30.120 
02:00	39.5	39.5	39.5	76	32.6	0	0	---	0.00	30.121 
02:05	39.3	39.3	39.3	76	32.4	0	0	---	0.00	30.121 
02:10	39.1	39.1	39.1	76	32.2	0	0	---	0.00	30.121 
02:15	38.9	38.9	38.9	76	32.0	0	0	---	0.00	30.122 
02:20	38.8	38.8	38.8	77	32.2	0	0	---	0.00	30.122 
02:25	38.6	38.6	38.6	77	32.0	0	0	---	0.00	30.122 
02:30	38.6	38.6	38.6	77	32.0	0	0	---	0.00	30.120 
02:35	38.8	38.8	38.8	77	32.2	0	0	---	0.00	30.120 
02:40	38.6	38.6	38.6	77	32.0	0	0	---	0.00	30.120 
02:45	38.8	38.8	38.8	77	32.2	0	0	---	0.00	30.114 
02:50	38.8	38.8	38.8	77	32.2	0	0	---	0.00	30.114 
02:55	38.8	38.8	38.8	77	32.2	0	0	---	0.00	30.114 
03:00	38.9	38.9	38.9	77	32.3	0	0	---	0.00	30.110 
03:05	38.9	38.9	38.9	77	32.3	0	0	---	0.00	30.110 
03:10	39.2	39.2	39.2	77	32.6	0	0	---	0.00	30.110 
03:15	39.3	39.3	39.3	76	32.4	0	0	---	0.00	30.109 
03:20	39.2	39.2	39.2	75	32.0	0	0	---	0.00	30.109 
03:25	39.1	39.1	39.1	76	32.2	0	0	---	0.00	30.109 
03:30	38.8	38.8	38.8	76	31.9	0	0	---	0.00	30.112 
03:35	38.5	38.5	38.5	77	31.9	0	0	---	0.00	30.112 
03:40	38.5	38.5	38.5	77	31.9	0	0	---	0.00	30.112 
03:45	38.3	38.3	38.3	78	32.1	0	0	---	0.00	30.117 
03:50	38.3	38.3	38.3	78	32.1	0	0	---	0.00	30.117 
03:55	38.2	38.2	38.2	78	32.0	0	0	---	0.00	30.117 
04:00	38.2	38.2	38.2	79	32.3	0	0	---	0.00	30.119 
04:05	38.2	38.2	38.2	79	32.3	0	0	---	0.00	30.119 
04:10	38.0	38.0	38.0	81	32.7	0	0	---	0.00	30.119 
04:15	38.0	38.0	38.0	82	33.0	0	0	---	0.00	30.109 
04:20	38.0	38.0	38.0	83	33.3	0	0	---	0.00	30.109 
04:25	37.9	37.9	37.9	83	33.2	0	0	---	0.00	30.109 
04:30	38.0	38.0	38.0	84	33.6	0	0	---	0.00	30.108 
04:35	38.0	38.0	38.0	84	33.6	0	0	---	0.00	30.108 
04:40	38.0	38.0	38.0	83	33.3	0	0	---	0.00	30.108 
04:45	38.2	38.2	38.2	82	33.2	0	0	---	0.00	30.106 
04:50	38.2	38.2	38.2	81	32.9	0	0	---	0.00	30.106 
04:55	38.2	38.2	38.2	81	32.9	0	0	---	0.00	30.106 
05:00	38.0	38.0	38.0	81	32.7	0	0	---	0.00	30.107 
05:05	37.9	37.9	37.9	81	32.6	0	0	---	0.00	30.107 
05:10	37.8	37.8	37.8	82	32.8	0	0	---	0.00	30.107 
05:15	37.6	37.6	37.6	82	32.6	0	0	---	0.00	30.117 
05:20	37.5	37.5	37.5	82	32.5	0	0	---	0.00	30.117 
05:25	37.2	37.2	37.2	82	32.2	0	0	---	0.00	30.117 
05:30	37.0	37.0	37.0	82	32.0	0	0	---	0.00	30.116 
05:35	37.0	37.0	37.0	82	32.0	0	0	---	0.00	30.116 
05:40	37.0	37.0	37.0	82	32.0	0	0	---	0.00	30.116 
05:45	37.0	37.0	37.0	82	32.0	0	0	---	0.00	30.118 
05:50	37.0	37.0	37.0	83	32.3	0	0	---	0.00	30.118 
05:55	37.0	37.0	37.0	82	32.0	0	0	---	0.00	30.118 
06:00	37.0	37.0	37.0	82	32.0	0	0	---	0.00	30.120 
06:05	37.0	37.0	37.0	81	31.7	0	0	---	0.00	30.120 
06:10	37.0	37.0	37.0	81	31.7	0	0	---	0.00	30.120 
06:15	36.9	36.9	36.9	82	31.9	0	0	---	0.00	30.124 
06:20	36.9	36.9	36.9	82	31.9	0	0	---	0.00	30.124 
06:25	36.8	36.8	36.8	82	31.8	0	0	---	0.00	30.124 
06:30	36.8	36.8	36.8	82	31.8	0	0	---	0.00	30.126 
06:35	36.6	36.6	36.6	82	31.6	0	0	---	0.00	30.126 
06:40	36.5	36.5	36.5	82	31.5	0	0	---	0.00	30.126 
06:45	36.3	36.3	36.3	83	31.6	0	0	---	0.00	30.126 
06:50	36.2	36.2	36.2	83	31.5	0	0	---	0.00	30.126 
06:55	36.0	36.0	36.0	83	31.3	0	0	---	0.00	30.126 
07:00	36.0	36.0	36.0	83	31.3	0	0	---	0.00	30.131 
07:05	36.0	36.0	36.0	83	31.3	0	0	---	0.00	30.131 
07:10	36.0	36.0	36.0	83	31.3	0	0	---	0.00	30.131 
07:15	36.2	36.2	36.2	83	31.5	0	0	---	0.00	30.137 
07:20	36.2	36.2	36.2	84	31.8	0	0	---	0.00	30.137 
07:25	36.3	36.3	36.3	84	31.9	0	0	---	0.00	30.137 
07:30	36.5	36.5	36.5	84	32.1	0	0	---	0.00	30.136 
07:35	36.6	36.6	36.6	84	32.2	0	0	---	0.00	30.136 
07:40	36.8	36.8	36.8	84	32.4	0	0	---	0.00	30.136 
07:45	37.0	37.0	37.0	83	32.3	0	0	---	0.00	30.138 
07:50	37.5	37.5	37.5	83	32.8	0	0	---	0.00	30.138 
07:55	37.8	37.8	37.8	83	33.1	0	0	---	0.00	30.138 
08:00	38.2	38.2	38.2	84	33.8	0	0	---	0.00	30.144 
08:05	38.8	38.8	38.8	82	33.8	0	0	---	0.00	30.144 
08:10	39.5	39.5	39.5	81	34.2	0	0	---	0.00	30.144 
08:15	40.2	40.2	40.2	80	34.5	0	0	---	0.00	30.141 
08:20	40.9	40.9	40.9	79	34.9	0	0	---	0.00	30.141 
08:25	41.3	41.3	41.3	77	34.6	0	0	---	0.00	30.141 
08:30	41.9	41.9	41.9	77	35.2	0	0	---	0.00	30.142 
08:35	42.9	42.9	42.9	74	35.2	0	0	---	0.00	30.142 
08:40	45.1	45.1	45.1	73	37.0	0	2	112	0.00	30.142 
08:45	47.1	47.1	47.1	66	36.3	0	2	112	0.00	30.140 
08:50	48.2	48.2	48.2	68	38.1	0	0	---	0.00	30.140 
08:55	48.9	48.9	48.9	66	38.0	0	1	112	0.00	30.140 
09:00	49.4	49.4	49.4	67	38.9	0	2	112	0.00	30.137 
09:05	50.4	50.4	50.4	64	38.7	1	2	112	0.00	30.137 
09:10	51.6	51.6	51.6	62	39.0	1	2	112	0.00	30.137 
09:15	53.1	53.1	53.1	61	40.0	0	1	112	0.00	30.140 
09:20	54.4	54.4	54.4	58	39.9	0	2	112	0.00	30.140 
09:25	55.1	55.1	55.1	56	39.7	0	2	112	0.00	30.140 
09:30	56.3	56.3	56.3	51	38.4	1	3	112	0.00	30.140 
09:35	57.5	57.5	57.5	51	39.5	1	3	90	0.00	30.140 
09:40	58.3	58.3	58.3	49	39.2	1	3	90	0.00	30.140 
09:45	58.6	58.6	58.6	47	38.4	2	5	90	0.00	30.142 
09:50	58.7	58.7	58.7	47	38.5	1	3	0	0.00	30.142 
09:55	59.2	59.2	59.2	48	39.5	1	3	0	0.00	30.142 
10:00	59.6	59.6	59.6	47	39.3	1	4	0	0.00	30.140 
10:05	60.5	60.5	60.5	49	41.2	1	3	135	0.00	30.140 
10:10	61.3	61.3	61.3	46	40.3	1	6	112	0.00	30.140 
10:15	62.0	62.0	62.0	46	41.0	2	6	90	0.00	30.142 
10:20	62.1	62.1	62.1	44	39.9	3	11	248	0.00	30.142 
10:25	62.4	62.4	62.4	45	40.8	3	7	270	0.00	30.142 
10:30	63.1	63.1	63.1	45	41.4	3	6	248	0.00	30.135 
10:35	63.9	63.9	63.9	43	41.0	2	4	0	0.00	30.135 
10:40	63.9	63.9	63.9	43	41.0	3	9	248	0.00	30.135 
10:45	63.9	63.9	63.9	44	41.6	2	8	248	0.00	30.131 
10:50	64.2	64.2	64.2	43	41.2	2	5	68	0.00	30.131 
10:55	64.8	64.8	64.8	46	43.5	2	5	0	0.00	30.131 
11:00	65.8	65.8	65.8	42	42.1	2	6	22	0.00	30.133 
11:05	65.8	65.8	65.8	40	40.8	3	6	270	0.00	30.133 
11:10	65.6	65.6	65.6	42	41.9	2	5	248	0.00	30.133 
11:15	65.6	65.6	65.6	43	42.5	1	4	248	0.00	30.130 
11:20	66.0	66.0	66.0	43	42.9	1	3	90	0.00	30.130 
11:25	66.4	66.4	66.4	41	42.0	2	5	90	0.00	30.130 
11:30	67.3	67.3	67.3	41	42.8	2	7	225	0.00	30.129 
11:35	67.6	67.6	67.6	41	43.1	2	7	270	0.00	30.129 
11:40	67.8	67.8	67.8	37	40.6	2	6	248	0.00	30.129 
11:45	67.8	67.8	67.8	37	40.6	3	7	248	0.00	30.128 
11:50	67.9	67.9	67.9	39	42.0	3	5	248	0.00	30.128 
11:55	68.4	68.4	68.4	37	41.1	2	5	270	0.00	30.128 
12:00	68.8	68.8	68.8	37	41.5	3	6	248	0.00	30.127 
12:05	69.1	69.1	69.1	36	41.0	3	10	248	0.00	30.127 
12:10	69.3	69.3	69.3	34	39.7	3	7	248	0.00	30.127 
12:15	69.4	69.4	69.4	37	42.0	2	5	248	0.00	30.126 
12:20	69.9	69.9	69.9	36	41.7	2	6	90	0.00	30.126 
12:25	70.4	70.4	70.4	34	40.7	3	10	90	0.00	30.126 
12:30	70.3	70.3	70.3	33	39.8	2	5	248	0.00	30.116 
12:35	70.6	70.6	70.6	35	41.6	2	4	248	0.00	30.116 
12:40	70.8	70.8	70.8	31	38.7	4	10	248	0.00	30.116 
12:45	71.1	71.1	71.1	35	42.0	4	10	248	0.00	30.113 
12:50	71.5	71.5	71.5	31	39.3	5	10	248	0.00	30.113 
12:55	72.0	72.0	72.0	35	42.8	3	10	248	0.00	30.113 
13:00	71.8	71.8	71.8	31	39.5	4	11	248	0.00	30.107 
13:05	72.1	72.1	72.1	31	39.8	4	11	248	0.00	30.107 
13:10	72.1	72.1	72.1	31	39.8	4	8	248	0.00	30.107 
13:15	72.0	72.0	72.0	30	38.9	6	14	270	0.00	30.098 
13:20	71.6	71.6	71.6	31	39.4	6	14	270	0.00	30.098 
13:25	71.6	71.6	71.6	32	40.2	5	12	248	0.00	30.098 
13:30	71.5	71.5	71.5	31	39.3	5	12	248	0.00	30.098 
13:35	71.3	71.3	71.3	32	39.9	5	11	270	0.00	30.098 
13:40	71.5	71.5	71.5	34	41.6	4	11	248	0.00	30.098 
13:45	71.8	71.8	71.8	33	41.1	4	13	248	0.00	30.097 
13:50	71.8	71.8	71.8	33	41.1	4	12	248	0.00	30.097 
13:55	71.6	71.6	71.6	35	42.5	4	10	248	0.00	30.097 
14:00	71.6	71.6	71.6	34	41.7	3	6	248	0.00	30.095 
14:05	71.8	71.8	71.8	33	41.1	4	12	248	0.00	30.095 
14:10	71.8	71.8	71.8	33	41.1	6	13	270	0.00	30.095 
14:15	71.8	71.8	71.8	34	41.9	6	14	248	0.00	30.095 
14:20	71.8	71.8	71.8	34	41.9	3	9	248	0.00	30.095 
14:25	72.1	72.1	72.1	35	42.9	3	6	248	0.00	30.095 
14:30	72.0	72.0	72.0	35	42.8	3	9	90	0.00	30.082 
14:35	71.6	71.6	71.6	35	42.5	4	12	248	0.00	30.082 
14:40	71.8	71.8	71.8	35	42.7	4	9	248	0.00	30.082 
14:45	72.3	72.3	72.3	34	42.3	5	11	248	0.00	30.081 
14:50	72.3	72.3	72.3	33	41.6	6	13	248	0.00	30.081 
14:55	72.3	72.3	72.3	36	43.8	4	8	248	0.00	30.081 
15:00	72.1	72.1	72.1	37	44.4	3	13	248	0.00	30.075 
15:05	72.3	72.3	72.3	35	43.1	4	9	248	0.00	30.075 
15:10	72.5	72.5	72.5	36	44.0	3	7	248	0.00	30.075 
15:15	72.8	72.8	72.8	34	42.8	4	13	90	0.00	30.066 
15:20	73.2	73.2	73.2	33	42.4	4	10	248	0.00	30.066 
15:25	73.2	73.2	73.2	35	43.9	4	11	248	0.00	30.066 
15:30	73.3	73.3	73.3	37	45.4	3	13	90	0.00	30.064 
15:35	73.0	73.0	73.0	31	40.6	4	15	270	0.00	30.064 
15:40	72.7	72.7	72.7	32	41.1	4	9	248	0.00	30.064 
15:45	72.1	72.1	72.1	34	42.2	2	9	248	0.00	30.054 
15:50	72.3	72.3	72.3	35	43.1	2	5	248	0.00	30.054 
15:55	72.7	72.7	72.7	29	38.6	5	12	270	0.00	30.054 
16:00	72.7	72.7	72.7	31	40.3	4	11	248	0.00	30.051 
16:05	72.3	72.3	72.3	31	40.0	3	9	248	0.00	30.051 
16:10	72.3	72.3	72.3	31	40.0	3	7	248	0.00	30.051 
16:15	72.3	72.3	72.3	30	39.1	3	8	248	0.00	30.048 
16:20	72.1	72.1	72.1	31	39.8	5	14	248	0.00	30.048 
16:25	72.5	72.5	72.5	32	41.0	3	7	248	0.00	30.048 
16:30	72.7	72.7	72.7	31	40.3	4	12	248	0.00	30.037 
16:35	73.0	73.0	73.0	32	41.4	4	10	248	0.00	30.037 
16:40	73.0	73.0	73.0	27	37.0	4	13	248	0.00	30.037 
16:45	72.7	72.7	72.7	30	39.5	4	11	248	0.00	30.035 
16:50	72.1	72.1	72.1	32	40.6	4	10	112	0.00	30.035 
16:55	71.6	71.6	71.6	34	41.7	3	7	270	0.00	30.035 
17:00	71.3	71.3	71.3	34	41.5	3	10	225	0.00	30.022 
17:05	71.5	71.5	71.5	35	42.4	3	7	90	0.00	30.022 
17:10	71.8	71.8	71.8	33	41.1	3	9	248	0.00	30.022 
17:15	72.0	72.0	72.0	34	42.1	5	11	248	0.00	30.018 
17:20	72.3	72.3	72.3	33	41.6	4	11	68	0.00	30.018 
17:25	72.8	72.8	72.8	34	42.8	3	12	248	0.00	30.018 
17:30	73.0	73.0	73.0	34	43.0	3	11	90	0.00	30.004 
17:35	72.5	72.5	72.5	33	41.7	4	9	90	0.00	30.004 
17:40	72.5	72.5	72.5	36	44.0	2	9	90	0.00	30.004 
17:45	72.3	72.3	72.3	37	44.6	3	9	90	0.00	30.005 
17:50	72.1	72.1	72.1	37	44.4	5	12	90	0.00	30.005 
17:55	72.1	72.1	72.1	38	45.1	4	10	90	0.00	30.005 
18:00	72.1	72.1	72.1	38	45.1	3	6	90	0.00	29.997 
18:05	72.1	72.1	72.1	36	43.7	5	10	90	0.00	29.997 
18:10	72.1	72.1	72.1	39	45.8	2	6	45	0.00	29.997 
18:15	72.0	72.0	72.0	38	45.0	3	9	270	0.00	29.997 
18:20	71.6	71.6	71.6	37	43.9	4	13	248	0.00	29.997 
18:25	71.5	71.5	71.5	38	44.5	4	16	68	0.00	29.997 
18:30	71.3	71.3	71.3	38	44.4	3	7	90	0.00	29.992 
18:35	71.5	71.5	71.5	37	43.8	4	9	90	0.00	29.992 
18:40	71.5	71.5	71.5	36	43.1	4	10	112	0.00	29.992 
18:45	71.5	71.5	71.5	37	43.8	3	7	90	0.00	29.993 
18:50	71.3	71.3	71.3	38	44.4	3	7	90	0.00	29.993 
18:55	71.1	71.1	71.1	37	43.5	2	4	90	0.00	29.993 
19:00	71.1	71.1	71.1	37	43.5	3	6	90	0.00	29.992 
19:05	70.9	70.9	70.9	36	42.6	2	6	90	0.00	29.992 
19:10	71.1	71.1	71.1	35	42.0	5	15	90	0.00	29.992 
19:15	70.9	70.9	70.9	35	41.9	3	7	90	0.00	29.990 
19:20	70.6	70.6	70.6	35	41.6	2	6	68	0.00	29.990 
19:25	70.4	70.4	70.4	35	41.4	3	5	270	0.00	29.990 
19:30	70.3	70.3	70.3	35	41.3	3	7	248	0.00	29.992 
19:35	70.1	70.1	70.1	35	41.2	2	7	270	0.00	29.992 
19:40	69.9	69.9	69.9	36	41.7	1	4	112	0.00	29.992 
19:45	69.6	69.6	69.6	36	41.5	1	6	0	0.00	29.992 
19:50	69.4	69.4	69.4	36	41.3	2	7	270	0.00	29.992 
19:55	69.3	69.3	69.3	37	41.9	2	5	248	0.00	29.992 
20:00	69.3	69.3	69.3	38	42.6	1	4	90	0.00	30.004 
20:05	69.1	69.1	69.1	38	42.4	1	3	338	0.00	30.004 
20:10	68.9	68.9	68.9	38	42.2	2	9	270	0.00	30.004 
20:15	69.1	69.1	69.1	38	42.4	2	5	248	0.00	30.001 
20:20	68.9	68.9	68.9	38	42.2	1	4	270	0.00	30.001 
20:25	68.8	68.8	68.8	39	42.8	1	5	248	0.00	30.001 
20:30	68.4	68.4	68.4	40	43.1	1	3	248	0.00	30.007 
20:35	68.3	68.3	68.3	41	43.7	0	2	248	0.00	30.007 
20:40	67.8	67.8	67.8	42	43.9	0	3	248	0.00	30.007 
20:45	67.4	67.4	67.4	42	43.5	1	2	248	0.00	30.009 
20:50	67.3	67.3	67.3	42	43.4	0	3	248	0.00	30.009 
20:55	67.1	67.1	67.1	43	43.8	1	5	90	0.00	30.009 
21:00	67.1	67.1	67.1	43	43.8	2	4	90	0.00	30.006 
21:05	67.1	67.1	67.1	42	43.2	2	9	90	0.00	30.006 
21:10	67.3	67.3	67.3	42	43.4	2	4	270	0.00	30.006 
21:15	67.4	67.4	67.4	41	42.9	2	5	270	0.00	30.005 
21:20	67.4	67.4	67.4	42	43.5	2	5	315	0.00	30.005 
21:25	67.4	67.4	67.4	41	42.9	2	7	248	0.00	30.005 
21:30	67.4	67.4	67.4	41	42.9	2	5	225	0.00	30.006 
21:35	67.4	67.4	67.4	41	42.9	2	5	248	0.00	30.006 
21:40	67.4	67.4	67.4	41	42.9	1	5	270	0.00	30.006 
21:45	67.4	67.4	67.4	41	42.9	1	4	225	0.00	30.017 
21:50	67.4	67.4	67.4	41	42.9	1	5	270	0.00	30.017 
21:55	67.3	67.3	67.3	42	43.4	2	4	90	0.00	30.017 
22:00	66.9	66.9	66.9	42	43.1	1	3	112	0.00	30.010 
22:05	66.8	66.8	66.8	43	43.6	1	4	180	0.00	30.010 
22:10	66.4	66.4	66.4	43	43.2	1	3	135	0.00	30.010 
22:15	66.3	66.3	66.3	44	43.7	1	4	90	0.00	30.004 
22:20	66.3	66.3	66.3	43	43.1	1	3	90	0.00	30.004 
22:25	66.3	66.3	66.3	43	43.1	1	3	338	0.00	30.004 
22:30	66.3	66.3	66.3	43	43.1	1	3	45	0.00	30.003 
22:35	66.3	66.3	66.3	43	43.1	1	5	90	0.00	30.003 
22:40	66.1	66.1	66.1	43	42.9	1	2	45	0.00	30.003 
22:45	66.1	66.1	66.1	44	43.5	1	3	338	0.00	30.003 
22:50	66.0	66.0	66.0	44	43.5	1	5	22	0.00	30.003 
22:55	66.0	66.0	66.0	45	44.0	1	4	270	0.00	30.003 
23:00	65.8	65.8	65.8	44	43.3	1	4	248	0.00	30.005 
23:05	65.6	65.6	65.6	45	43.7	1	4	112	0.00	30.005 
23:10	65.5	65.5	65.5	45	43.6	1	3	338	0.00	30.005 
23:15	65.3	65.3	65.3	45	43.4	1	4	292	0.00	30.004 
23:20	65.2	65.2	65.2	46	43.9	1	4	225	0.00	30.004 
23:25	65.0	65.0	65.0	46	43.7	1	4	270	0.00	30.004 
23:30	65.0	65.0	65.0	46	43.7	1	3	248	0.00	30.002 
23:35	64.8	64.8	64.8	47	44.1	1	3	292	0.00	30.002 
23:40	64.7	64.7	64.7	48	44.6	0	2	0	0.00	30.002 
23:45	64.5	64.5	64.5	48	44.4	0	3	45	0.00	29.998 
23:50	64.3	64.3	64.3	48	44.2	1	3	90	0.00	29.998 
23:55	64.3	64.3	64.3	49	44.7	1	3	90	0.00	29.998 

CoCoRaHS
IN-AL-39
A2 Web Hosting
Creative Commons License
GoDaddy
Look for:

loaded 2017-10-17 22:19:25 • last modified 2010-11-18 10:43:29
Privacy PolicyDisclaimer
• wx.awcolley.com is powered by PmWiki v.2002016 •
• all content (unless otherwise noted) © 2017 A W Colley